• Join FlightAware (Why Join?)
  • Login
  • US Flag 
07:40AM EST


 

Airport Tracker/Info


-or-


 

Live Flight TrackerFlight Track Log ✈ SWA1464 ✈ 08-Mar-2014 ✈ KPHL - KDEN

Flight Track Log - Related Links

Times and Time Zones

All times are in EST time to prevent confusion due to time zone crossing. See the SWA1464 flight status page for this flight to view local times or setup timezone preferences in your user account.

Time Position Orientation Groundspeed Altitude Reporting Facility
EST Latitude Longitude Course Direction KTS MPH feet Rate Location/Type
08:57AM 39.8667 -75.2833 237° Southwest 158 182 800  Level Philadelphia TRACON
08:58AM 39.8333 -75.3500 237° Southwest 220 253 3,300 2,700 Climbing Philadelphia TRACON
08:59AM 39.8333 -75.4167 270° West 242 278 6,200 3,120 Climbing Philadelphia TRACON
09:00AM 39.9000 -75.4500 339° North 268 308 9,300 2,520 Climbing Philadelphia TRACON
09:01AM 39.9833 -75.4833 343° North 317 365 11,300 1,740 Climbing Philadelphia TRACON
09:02AM 40.0833 -75.5167 346° North 353 406 13,000 720 Climbing Philadelphia TRACON
09:03AM 40.1814 -75.5497 346° North 371 427 13,000 240 Level New York Center
09:04AM 40.2539 -75.6119 327° Northwest 364 419 13,600 1,680 Climbing New York Center
09:05AM 40.3186 -75.7064 312° West 348 400 16,400 2,820 Climbing New York Center
09:06AM 40.3956 -75.8153 313° West 364 419 19,300 2,700 Climbing New York Center
09:07AM 40.4447 -75.9308 299° West 370 426 21,800 2,400 Climbing New York Center
09:08AM 40.4614 -76.0686 279° West 368 423 24,100 2,100 Climbing New York Center
09:09AM 40.4781 -76.2061 279° West 379 436 26,100 1,800 Climbing New York Center
09:10AM 40.4964 -76.3497 280° West 389 448 27,700 1,560 Climbing New York Center
09:11AM 40.5167 -76.4933 281° West 400 460 29,300 1,560 Climbing New York Center
09:12AM 40.5347 -76.6367 279° West 400 460 30,900 1,800 Climbing New York Center
09:13AM 40.5567 -76.7808 281° West 400 460 32,900 1,800 Climbing New York Center
09:14AM 40.5722 -76.9214 278° West 394 453 34,600 1,380 Climbing New York Center
09:15AM 40.5922 -77.0600 281° West 394 453 35,700 660 Climbing New York Center
09:16AM 40.6094 -77.2036 279° West 394 453 36,000 120 Climbing New York Center
09:17AM 40.6289 -77.3422 281° West 394 453 36,000  Level New York Center
09:18AM 40.6478 -77.4864 280° West 394 453 36,000  Level New York Center
09:19AM 40.6647 -77.6278 279° West 394 453 36,000  Level New York Center
09:21AM 40.7000 -77.9242 279° West 388 447 36,000  Level Cleveland Center
09:22AM 40.7167 -78.0611 279° West 384 442 36,000  Level Cleveland Center
09:23AM 40.7331 -78.1994 279° West 384 442 36,000  Level Cleveland Center
09:24AM 40.7528 -78.3650 279° West 384 442 36,000  Level Cleveland Center
09:25AM 40.7683 -78.5022 279° West 383 441 36,000  Level Cleveland Center
09:26AM 40.7844 -78.6392 279° West 380 437 36,000  Level Cleveland Center
09:27AM 40.7997 -78.7775 278° West 380 437 36,000  Level Cleveland Center
09:28AM 40.8153 -78.9167 278° West 380 437 36,000  Level Cleveland Center
09:29AM 40.8303 -79.0492 279° West 385 443 36,000  Level Cleveland Center
09:30AM 40.8456 -79.1889 278° West 386 444 36,000  Level Cleveland Center
09:31AM 40.8608 -79.3289 278° West 386 444 36,000  Level Cleveland Center
09:32AM 40.8786 -79.4975 278° West 387 445 36,000  Level Cleveland Center
09:33AM 40.8942 -79.6383 278° West 389 448 36,000  Level Cleveland Center
09:34AM 40.9086 -79.7769 278° West 387 445 36,000  Level Cleveland Center
09:35AM 40.9231 -79.9172 278° West 387 445 36,000  Level Cleveland Center
09:36AM 40.9378 -80.0583 278° West 388 447 36,000  Level Cleveland Center
09:37AM 40.9508 -80.1986 277° West 388 447 36,000  Level Cleveland Center
09:38AM 40.9694 -80.3678 278° West 389 448 36,000  Level Cleveland Center
09:40AM 40.9828 -80.5094 277° West 390 449 36,000  Level Cleveland Center
09:41AM 40.9961 -80.6511 277° West 390 449 36,000  Level Cleveland Center
09:42AM 41.0100 -80.7922 277° West 390 449 36,000  Level Cleveland Center
09:43AM 41.0233 -80.9319 277° West 389 448 36,000  Level Cleveland Center
09:44AM 41.0358 -81.0797 276° West 388 447 36,000 300 Level Cleveland Center
09:45AM 41.0492 -81.2247 277° West 389 448 36,700 480 Climbing Cleveland Center
09:46AM 41.0622 -81.3719 277° West 395 455 37,000 480 Climbing Cleveland Center
09:47AM 41.0747 -81.5200 276° West 398 458 37,800 480 Climbing Cleveland Center
09:48AM 41.0881 -81.6592 277° West 376 433 38,000 60 Climbing Cleveland Center
09:49AM 41.0994 -81.7978 276° West 372 428 38,000  Level Cleveland Center
09:50AM 41.1119 -81.9364 277° West 372 428 38,000  Level Cleveland Center
09:51AM 41.1236 -82.0775 276° West 373 429 38,000  Level Cleveland Center
09:52AM 41.1342 -82.2150 276° West 373 429 38,000  Level Cleveland Center
09:53AM 41.1456 -82.3531 276° West 373 429 38,000  Level Cleveland Center
09:54AM 41.1567 -82.4911 276° West 373 429 38,000  Level Cleveland Center
09:55AM 41.1686 -82.6303 277° West 373 429 38,000  Level Cleveland Center
09:56AM 41.1808 -82.7936 276° West 375 432 38,000  Level Cleveland Center
09:57AM 41.1914 -82.9350 276° West 377 434 38,000  Level Cleveland Center
09:58AM 41.2022 -83.0764 276° West 379 436 38,000  Level Cleveland Center
09:59AM 41.2122 -83.2158 275° West 379 436 38,000  Level Cleveland Center
10:00AM 41.2222 -83.3553 275° West 379 436 38,000  Level Cleveland Center
10:01AM 41.2317 -83.4947 275° West 379 436 38,000  Level Cleveland Center
10:02AM 41.2425 -83.6322 276° West 378 435 38,000  Level Cleveland Center
10:03AM 41.2517 -83.7722 275° West 378 435 38,000  Level Cleveland Center
10:04AM 41.2611 -83.9133 275° West 377 434 38,000  Level Cleveland Center
10:05AM 41.2667 -83.9964 275° West 378 435 38,000  Level Chicago Center
10:06AM 41.2758 -84.1353 275° West 378 435 38,000  Level Chicago Center
10:07AM 41.2850 -84.2736 275° West 377 434 38,000  Level Chicago Center
10:08AM 41.2936 -84.4142 275° West 380 437 38,000  Level Chicago Center
10:09AM 41.3031 -84.5533 275° West 379 436 38,000  Level Chicago Center
10:10AM 41.3128 -84.7225 274° West 384 442 38,000  Level Chicago Center
10:11AM 41.3214 -84.8636 275° West 382 440 38,000  Level Chicago Center
10:12AM 41.3289 -85.0050 274° West 382 440 38,000  Level Chicago Center
10:13AM 41.3372 -85.1469 275° West 383 441 38,000  Level Chicago Center
10:14AM 41.3450 -85.2883 274° West 382 440 38,000  Level Chicago Center
10:15AM 41.3531 -85.4314 274° West 383 441 38,000  Level Chicago Center
10:16AM 41.3606 -85.5731 274° West 382 440 38,000  Level Chicago Center
10:17AM 41.3667 -85.7156 273° West 381 438 38,000  Level Chicago Center
10:18AM 41.3742 -85.8575 274° West 383 441 38,000  Level Chicago Center
10:19AM 41.3808 -85.9983 274° West 381 438 38,000  Level Chicago Center
10:20AM 41.3883 -86.1392 274° West 380 437 38,000  Level Chicago Center
10:21AM 41.3967 -86.3078 274° West 381 438 38,000  Level Chicago Center
10:22AM 41.4019 -86.4467 273° West 377 434 38,000  Level Chicago Center
10:23AM 41.4092 -86.5853 274° West 376 433 38,000  Level Chicago Center
10:24AM 41.4142 -86.7247 273° West 376 433 38,000  Level Chicago Center
10:25AM 41.4214 -86.8831 274° West 380 437 38,000  Level Chicago Center
10:26AM 41.4261 -87.0225 273° West 379 436 38,000  Level Chicago Center
10:27AM 41.4319 -87.1653 273° West 385 443 38,000  Level Chicago Center
10:28AM 41.4372 -87.3083 273° West 387 445 38,000  Level Chicago Center
10:29AM 41.4431 -87.4528 273° West 391 450 38,000  Level Chicago Center
10:30AM 41.4483 -87.5964 273° West 391 450 38,000  Level Chicago Center
10:31AM 41.4533 -87.7422 273° West 395 455 38,000  Level Chicago Center
10:32AM 41.4586 -87.9150 272° West 393 452 38,000  Level Chicago Center
10:33AM 41.4644 -88.0464 273° West 394 453 38,000  Level Chicago Center
10:34AM 41.4675 -88.1894 272° West 389 448 38,000  Level Chicago Center
10:35AM 41.4722 -88.3303 273° West 381 438 38,000  Level Chicago Center
10:36AM 41.4758 -88.4728 272° West 384 442 38,000  Level Chicago Center
10:37AM 41.4800 -88.6439 272° West 386 444 38,000  Level Chicago Center
10:39AM 41.4844 -88.7831 272° West 381 438 38,000  Level Chicago Center
10:40AM 41.4878 -88.9267 272° West 386 444 38,000  Level Chicago Center
10:41AM 41.4911 -89.0681 272° West 384 442 38,000  Level Chicago Center
10:42AM 41.4953 -89.2106 272° West 388 447 38,000  Level Chicago Center
10:43AM 41.4972 -89.3578 271° West 397 457 38,000  Level Chicago Center
10:44AM 41.5006 -89.5031 272° West 394 453 38,000  Level Chicago Center
10:45AM 41.5025 -89.6500 271° West 397 457 38,000  Level Chicago Center
10:46AM 41.5053 -89.8281 271° West 401 461 38,000  Level Chicago Center
10:47AM 41.5083 -89.9758 272° West 401 461 38,000  Level Chicago Center
10:48AM 41.5097 -90.1275 271° West 410 472 38,000  Level Chicago Center
10:49AM 41.5128 -90.2769 272° West 407 468 38,000  Level Chicago Center
10:50AM 41.5144 -90.4289 271° West 411 473 38,000  Level Chicago Center
10:51AM 41.5164 -90.5786 271° West 408 470 38,000  Level Chicago Center
10:52AM 41.5147 -90.7333 269° West 417 480 38,000  Level Chicago Center
10:53AM 41.5167 -90.8858 271° West 412 474 38,000  Level Chicago Center
10:54AM 41.5175 -91.0344 270° West 405 466 38,000  Level Chicago Center
10:55AM 41.5186 -91.1994 271° West 407 468 38,000  Level Chicago Center
10:56AM 41.5186 -91.3508 270° West 409 471 38,000  Level Chicago Center
10:57AM 41.5192 -91.5003 270° West 406 467 38,000  Level Chicago Center
10:58AM 41.5175 -91.6794 269° West 405 466 38,000  Level Chicago Center
10:59AM 41.5125 -91.8278 267° West 402 463 38,000  Level Chicago Center
11:00AM 41.5072 -91.9778 267° West 405 466 38,000  Level Chicago Center
11:01AM 41.5017 -92.1272 267° West 406 467 38,000  Level Chicago Center
11:02AM 41.4972 -92.2767 268° West 406 467 38,000  Level Chicago Center
11:03AM 41.4894 -92.4408 266° West 404 465 38,000  Level Chicago Center
11:04AM 41.4847 -92.5914 268° West 408 470 38,000  Level Chicago Center
11:05AM 41.4781 -92.7397 267° West 406 467 38,000  Level Chicago Center
11:06AM 41.4717 -92.8869 267° West 403 464 38,000  Level Chicago Center
11:07AM 41.4650 -93.0375 267° West 408 470 38,000  Level Chicago Center
11:08AM 41.4594 -93.1828 267° West 401 461 38,000  Level Chicago Center
11:09AM 41.4517 -93.3606 267° West 405 466 38,000  Level Chicago Center
11:10AM 41.4444 -93.5092 266° West 406 467 38,000  Level Chicago Center
11:11AM 41.4356 -93.6575 265° West 406 467 38,000  Level Chicago Center
11:12AM 41.4272 -93.8047 266° West 404 465 38,000  Level Chicago Center
11:13AM 41.4144 -93.9833 265° West 404 465 38,000  Level Minneapolis Center
11:15AM 41.4050 -94.1317 265° West 404 465 38,000  Level Minneapolis Center
11:16AM 41.3953 -94.2903 265° West 405 466 38,000  Level Minneapolis Center
11:17AM 41.3850 -94.4397 265° West 404 465 38,000  Level Minneapolis Center
11:18AM 41.3739 -94.5917 264° West 407 468 38,000  Level Minneapolis Center
11:19AM 41.3636 -94.7417 265° West 408 470 38,000  Level Minneapolis Center
11:20AM 41.3525 -94.8947 265° West 410 472 38,000  Level Minneapolis Center
11:21AM 41.3397 -95.0767 265° West 412 474 38,000  Level Minneapolis Center
11:22AM 41.3278 -95.2256 264° West 411 473 38,000  Level Minneapolis Center
11:23AM 41.3169 -95.3753 265° West 409 471 38,000  Level Minneapolis Center
11:24AM 41.3047 -95.5236 264° West 407 468 38,000  Level Minneapolis Center
11:25AM 41.2939 -95.6717 264° West 406 467 38,000  Level Minneapolis Center
11:26AM 41.2825 -95.8203 264° West 406 467 38,000  Level Minneapolis Center
11:27AM 41.2703 -95.9694 264° West 406 467 38,000  Level Minneapolis Center
11:28AM 41.2569 -96.1203 263° West 407 468 38,000  Level Minneapolis Center
11:29AM 41.2422 -96.2997 264° West 407 468 38,000  Level Minneapolis Center
11:30AM 41.2308 -96.4314 263° West 406 467 38,000  Level Minneapolis Center
11:31AM 41.2181 -96.5833 264° West 410 472 38,000  Level Minneapolis Center
11:32AM 41.2039 -96.7347 263° West 410 472 38,000  Level Minneapolis Center
11:33AM 41.1886 -96.9164 264° West 411 473 38,000  Level Minneapolis Center
11:34AM 41.1733 -97.0686 262° West 412 474 38,000  Level Minneapolis Center
11:35AM 41.1592 -97.2194 263° West 412 474 38,000  Level Minneapolis Center
11:36AM 41.1453 -97.3714 263° West 413 475 38,000  Level Minneapolis Center
11:37AM 41.1319 -97.5111 263° West 413 475 38,000  Level Minneapolis Center
11:38AM 41.1147 -97.6919 263° West 413 475 38,000  Level Minneapolis Center
11:39AM 41.1000 -97.8433 263° West 413 475 38,000  Level Minneapolis Center
11:40AM 41.0850 -97.9947 263° West 413 475 38,000  Level Minneapolis Center
11:42AM 41.0542 -98.2969 262° West 413 475 38,000  Level Minneapolis Center
11:43AM 41.0375 -98.4600 262° West 414 476 38,000  Level Minneapolis Center
11:44AM 41.0217 -98.6114 262° West 414 476 38,000  Level Minneapolis Center
11:45AM 41.0036 -98.7636 261° West 415 478 38,000  Level Minneapolis Center
11:46AM 40.9808 -98.9169 259° West 419 482 38,000  Level Minneapolis Center
11:47AM 40.9592 -99.0694 259° West 421 484 38,000  Level Minneapolis Center
11:48AM 40.9397 -99.2261 261° West 422 486 38,000  Level Minneapolis Center
11:49AM 40.9144 -99.4122 260° West 423 487 38,000  Level Minneapolis Center
11:50AM 40.8931 -99.5667 260° West 423 487 38,000  Level Minneapolis Center
11:51AM 40.8706 -99.7228 259° West 429 494 38,000  Level Minneapolis Center
11:52AM 40.8492 -99.8806 260° West 432 497 38,000  Level Minneapolis Center
11:54AM 40.8261 -100.0367 259° West 432 497 38,000  Level Minneapolis Center
11:55AM 40.8028 -100.1939 259° West 433 498 38,000  Level Minneapolis Center
11:56AM 40.7803 -100.3522 259° West 434 499 38,000  Level Minneapolis Center
11:56AM 40.7689 -100.4253 258° West 435 501 38,000  Level Denver Center
11:57AM 40.7417 -100.6011 259° West 435 501 38,000  Level Denver Center
11:58AM 40.7189 -100.7547 259° West 435 501 38,000  Level Denver Center
11:59AM 40.6950 -100.9081 258° West 436 502 38,000  Level Denver Center
12:00PM 40.6683 -101.0842 259° West 436 502 38,000  Level Denver Center
12:01PM 40.6453 -101.2344 259° West 436 502 38,000  Level Denver Center
12:02PM 40.6181 -101.4106 259° West 437 503 38,000  Level Denver Center
12:03PM 40.5936 -101.5631 258° West 443 510 38,000  Level Denver Center
12:04PM 40.5653 -101.7414 258° West 444 511 38,000  Level Denver Center
12:05PM 40.5397 -101.8944 258° West 445 512 38,000 -60 Level Denver Center
12:06PM 40.5117 -102.0717 258° West 445 512 37,900 -540 Descending Denver Center
12:07PM 40.4850 -102.2247 257° West 447 514 36,900 -1,080 Descending Denver Center
12:08PM 40.4539 -102.4103 258° West 463 533 35,800 -960 Descending Denver Center
12:10PM 40.4292 -102.5664 258° West 461 531 34,900 -900 Descending Denver Center
12:11PM 40.4031 -102.7211 258° West 459 528 34,000 -1,020 Descending Denver Center
12:12PM 40.3672 -102.9181 257° West 462 532 32,800 -1,560 Descending Denver Center
12:13PM 40.3411 -103.0828 258° West 464 534 30,800 -2,340 Descending Denver Center
12:14PM 40.3114 -103.2442 256° West 461 531 28,100 -2,460 Descending Denver Center
12:15PM 40.2836 -103.3992 257° West 444 511 25,700 -2,280 Descending Denver Center
12:16PM 40.2572 -103.5517 257° West 433 498 23,400 -1,800 Descending Denver Center
12:17PM 40.2314 -103.6944 257° West 407 468 22,000 -1,620 Descending Denver Center
12:18PM 40.1992 -103.8511 255° West 397 457 20,000 -1,560 Descending Denver Center
12:19PM 40.1406 -103.9825 240° Southwest 390 449 18,900 -1,020 Descending Denver Center
12:20PM 40.0867 -104.0986 239° Southwest 369 425 17,900 -1,740 Descending Denver Center
12:21PM 40.0297 -104.2206 239° Southwest 364 419 15,400 -2,220 Descending Denver Center
12:22PM 39.9783 -104.3311 239° Southwest 359 413 13,500 -1,500 Descending Denver Center
12:22PM 39.9500 -104.3833 235° Southwest 335 386 13,100 -960 Descending Denver TRACON
12:25PM 39.8167 -104.5000 214° Southwest 295 339 11,000 -720 Descending Denver TRACON
12:25PM 39.7500 -104.5000 180° South 263 303 11,000 -180 Level Denver TRACON
12:26PM 39.7044 -104.5031 183° South 262 302 10,800 -840 Descending Denver Center
12:27PM 39.6336 -104.5044 181° South 257 296 9,700 -900 Descending Denver Center
12:28PM 39.6008 -104.5650 235° Southwest 206 237 9,000 -780 Descending Denver Center
12:29PM 39.6386 -104.6019 323° Northwest 179 206 8,100 -600 Descending Denver Center
12:30PM 39.6867 -104.6333 333° Northwest 181 208 7,800 -540 Descending Denver Center
12:31PM 39.7356 -104.6425 352° North 179 206 7,100 -720 Descending Denver Center
12:32PM 39.7839 -104.6425 360° North 161 185 6,400 -720 Descending Denver Center
12:33PM 39.8250 -104.6422 360° North 151 174 5,600 -480 Descending Denver Center
12:34PM 39.8517 -104.6417 North 121 139 5,400 -240 Descending Denver Center
12:36PM 39.8500 -104.6667 North  Level FlightAware Approximate
12:43PM 39.8617 -104.6732 North  Level Estimated
12:44PM 39.8617 -104.6732 North  Level Estimated
12:45PM 39.8617 -104.6732 North  Level Estimated